Polfoss — V2PN7 — position and weather

sailwx.info

Track history (hours):
 
Tides and Currents Weather Stations Pressure Air Temp Water Temp Dewpoint Dewpoint Depression Visibility Wind Speed Wind Dir Waves Ship Positions

Polfoss

Last reported at 2017-Oct-22 04:30 UTC. Time now 2017-Oct-22 04:46 UTC.
Position N 70°38' E 029°43'.

Length 82 m; draft 5.4 m.

Type: Cargo ship. MMSI: 305081000.

Date/timePositionNaut miles runAvg speedWind from/ knotsBaromVisibWave heightAir tempDewpointWater temp
2017-Oct-22 04:30N 70°38' E 029°43'0 0.0
2017-Oct-22 04:00N 70°38' E 029°43'0 0.0
2017-Oct-22 03:30N 70°38' E 029°43'0 0.0
2017-Oct-22 03:00N 70°38' E 029°43'0 0.0
2017-Oct-22 02:30N 70°38' E 029°43'0 0.0
2017-Oct-22 02:00N 70°38' E 029°43'0 0.0
2017-Oct-22 01:29N 70°38' E 029°43'0 0.0
2017-Oct-22 01:00N 70°38' E 029°43'0 0.0
2017-Oct-22 00:30N 70°38' E 029°43'2 3.9
2017-Oct-22 00:00N 70°39' E 029°48'714.1
2017-Oct-21 23:30N 70°44' E 030°03'612.5
2017-Oct-21 23:00N 70°41' E 030°19'714.2
2017-Oct-21 22:30N 70°36' E 030°34'714.2
2017-Oct-21 22:00N 70°31' E 030°50'713.7
2017-Oct-21 21:30N 70°25' E 031°02'3 6.5
2017-Oct-21 20:59N 70°22' E 031°02'0 0.0
2017-Oct-21 20:29N 70°22' E 031°02'0 0.0
2017-Oct-21 20:00N 70°22' E 031°02'3 5.2
2017-Oct-21 19:30N 70°20' E 031°06'612.3
2017-Oct-21 19:00N 70°14' E 030°60'612.5
2017-Oct-21 18:30N 70°09' E 030°48'712.8
2017-Oct-21 17:59N 70°04' E 030°36'713.4
2017-Oct-21 17:30N 69°59' E 030°23'714.0
2017-Oct-21 17:00N 69°54' E 030°10'714.1
2017-Oct-21 16:30N 69°47' E 030°05'3 6.3
2017-Oct-21 16:00N 69°44' E 030°04'0 0.0
2017-Oct-21 15:30N 69°44' E 030°04'0 0.0
2017-Oct-21 15:00N 69°44' E 030°04'0 0.0
2017-Oct-21 14:00N 69°44' E 030°04'0 0.0
2017-Oct-21 13:30N 69°44' E 030°04'4 8.2
2017-Oct-21 13:00N 69°48' E 030°06'713.3
2017-Oct-21 12:30N 69°54' E 030°13'714.3
2017-Oct-21 12:00N 69°57' E 030°32'714.7
2017-Oct-21 11:30N 70°01' E 030°51'714.7
2017-Oct-21 11:00N 70°04' E 031°10'714.6
2017-Oct-21 10:30N 70°08' E 031°28'714.4
2017-Oct-21 10:00N 70°11' E 031°48'72 9.7
2017-Oct-21 02:31N 69°03' E 033°05'3 6.8
2017-Oct-21 02:01N 69°00' E 033°03'3 6.7
2017-Oct-21 01:30N 68°57' E 033°01'0 1.0
2017-Oct-21 01:01N 68°56' E 033°02'0 0.0
2017-Oct-21 00:28N 68°56' E 033°02'0 0.0
2017-Oct-20 23:58N 68°56' E 033°02'0 0.0
2017-Oct-20 23:28N 68°56' E 033°02'0 0.0
2017-Oct-20 23:00N 68°56' E 033°02'0 0.0
2017-Oct-20 22:30N 68°56' E 033°02'0 0.0
2017-Oct-20 22:00N 68°56' E 033°02'0 0.0
2017-Oct-20 21:29N 68°56' E 033°02'0 0.0
2017-Oct-20 20:59N 68°56' E 033°02'0 0.0
2017-Oct-20 20:29N 68°56' E 033°02'0 0.0
2017-Oct-20 19:58N 68°56' E 033°02'0 0.0
2017-Oct-20 19:28N 68°56' E 033°02'0 0.0
2017-Oct-20 19:00N 68°56' E 033°02'0 0.0
2017-Oct-20 18:29N 68°56' E 033°02'0 0.0
2017-Oct-20 17:59N 68°56' E 033°02'0 0.0
2017-Oct-20 17:29N 68°56' E 033°02'0 0.0
2017-Oct-20 16:58N 68°56' E 033°02'0 0.0
2017-Oct-20 16:28N 68°56' E 033°02'0 0.0
2017-Oct-20 15:58N 68°56' E 033°02'0 0.0
2017-Oct-20 15:27N 68°56' E 033°02'0 0.0
2017-Oct-20 15:00N 68°56' E 033°02'0 0.0
2017-Oct-20 13:59N 68°56' E 033°02'0 0.0
2017-Oct-20 13:30N 68°56' E 033°02'0 0.0
2017-Oct-20 13:00N 68°56' E 033°02'0 0.0
2017-Oct-20 12:29N 68°56' E 033°02'0 0.0
2017-Oct-20 11:56N 68°56' E 033°02'0 0.0
2017-Oct-20 11:28N 68°56' E 033°02'0 0.0
2017-Oct-20 10:58N 68°56' E 033°02'0 0.0
2017-Oct-20 10:28N 68°56' E 033°02'0 0.0
2017-Oct-20 10:01N 68°56' E 033°02'0 0.0
2017-Oct-20 09:30N 68°56' E 033°02'0 0.0
2017-Oct-20 09:00N 68°56' E 033°02'0 0.0
2017-Oct-20 08:27N 68°56' E 033°02'0 0.0
2017-Oct-20 07:59N 68°56' E 033°02'0 0.0
2017-Oct-20 07:29N 68°56' E 033°02'0 0.0
2017-Oct-20 06:59N 68°56' E 033°02'0 0.0
2017-Oct-20 06:28N 68°56' E 033°02'0 0.0
2017-Oct-20 06:00N 68°56' E 033°02'0 0.0
2017-Oct-20 05:30N 68°56' E 033°02'0 0.0
2017-Oct-20 05:00N 68°56' E 033°02'0 0.0
2017-Oct-20 04:30N 68°56' E 033°02'0 0.0
2017-Oct-20 03:59N 68°56' E 033°02'0 0.0
2017-Oct-20 03:29N 68°56' E 033°02'0 0.0
2017-Oct-20 03:00N 68°56' E 033°02'2 3.6
2017-Oct-20 02:30N 68°58' E 033°02'3 6.5
2017-Oct-20 02:00N 69°01' E 033°03'72 9.4
2017-Oct-19 18:17N 70°10' E 032°01'413.1
2017-Oct-19 18:00N 70°10' E 031°50'713.0
2017-Oct-19 17:29N 70°08' E 031°31'612.9
2017-Oct-19 17:00N 70°05' E 031°15'713.0
2017-Oct-19 16:30N 70°02' E 030°58'713.4
2017-Oct-19 16:00N 69°59' E 030°40'713.4
2017-Oct-19 15:30N 69°56' E 030°23'713.6
2017-Oct-19 15:00N 69°52' E 030°07'714.6
2017-Oct-19 14:30N 69°45' E 030°04'1 1.8
2017-Oct-19 14:01N 69°44' E 030°05'1 1.7
2017-Oct-19 13:30N 69°45' E 030°05'714.7
2017-Oct-19 13:00N 69°52' E 030°08'714.8
2017-Oct-19 12:30N 69°58' E 030°20'714.8
2017-Oct-19 12:00N 70°04' E 030°34'815.3
2017-Oct-19 11:30N 70°10' E 030°48'815.3
2017-Oct-19 11:00N 70°16' E 031°02'714.0
2017-Oct-19 10:30N 70°22' E 031°04'713.8
2017-Oct-19 10:00N 70°29' E 030°57'713.2
2017-Oct-19 09:30N 70°34' E 030°42'713.2
2017-Oct-19 09:00N 70°38' E 030°27'612.9
2017-Oct-19 08:30N 70°42' E 030°13'713.2
2017-Oct-19 08:00N 70°46' E 029°56'713.2
2017-Oct-19 07:30N 70°49' E 029°39'612.7
2017-Oct-19 07:00N 70°53' E 029°23'613.0
2017-Oct-19 06:30N 70°56' E 029°06'613.0
2017-Oct-19 06:00N 70°60' E 028°49'713.3
2017-Oct-19 05:30N 71°03' E 028°32'713.3
2017-Oct-19 05:00N 71°07' E 028°16'712.8
2017-Oct-19 04:29N 71°08' E 027°56'713.1
2017-Oct-19 04:00N 71°09' E 027°36'713.8
2017-Oct-19 03:31N 71°06' E 027°17'713.9
2017-Oct-19 03:00N 71°04' E 026°57'713.9
2017-Oct-19 02:30N 71°01' E 026°37'713.7
2017-Oct-19 02:00N 70°59' E 026°17'714.0
2017-Oct-19 01:30N 70°57' E 025°56'714.5
2017-Oct-19 01:00N 70°56' E 025°34'815.6
2017-Oct-19 00:30N 70°59' E 025°14'714.8
2017-Oct-19 00:00N 70°60' E 024°51'714.3
2017-Oct-18 23:30N 71°01' E 024°29'714.8
2017-Oct-18 23:00N 70°56' E 024°14'815.1
2017-Oct-18 22:30N 70°51' E 023°56'714.8
2017-Oct-18 22:00N 70°46' E 023°40'715.0
2017-Oct-18 21:30N 70°40' E 023°24'815.4
2017-Oct-18 21:00N 70°34' E 023°09'714.7
2017-Oct-18 20:31N 70°30' E 022°52'714.5
2017-Oct-18 20:00N 70°28' E 022°31'714.6
2017-Oct-18 19:30N 70°26' E 022°10'815.2
2017-Oct-18 19:00N 70°24' E 021°47'713.8
2017-Oct-18 18:30N 70°20' E 021°31'714.3
2017-Oct-18 18:00N 70°15' E 021°15'714.1
2017-Oct-18 17:30N 70°10' E 021°03'714.5
2017-Oct-18 17:00N 70°03' E 020°53'714.7
2017-Oct-18 16:30N 70°01' E 020°33'814.8
2017-Oct-18 16:00N 69°59' E 020°12'714.6
2017-Oct-18 15:30N 69°54' E 019°56'714.4
2017-Oct-18 15:00N 69°50' E 019°39'1414.0
2017-Oct-18 14:00N 69°43' E 019°03'4 8.4
2017-Oct-18 13:30N 69°39' E 018°58'0 0.0
2017-Oct-18 13:00N 69°39' E 018°58'0 0.0
2017-Oct-18 12:30N 69°39' E 018°58'0 0.0
2017-Oct-18 12:00N 69°39' E 018°58'0 0.0
2017-Oct-18 11:30N 69°39' E 018°58'0 0.0
2017-Oct-18 11:00N 69°39' E 018°58'0 0.7
2017-Oct-18 10:30N 69°40' E 018°59'1 1.4
2017-Oct-18 10:00N 69°39' E 018°59'612.6
2017-Oct-18 09:30N 69°34' E 018°48'815.7
2017-Oct-18 09:00N 69°31' E 018°27'714.7
2017-Oct-18 08:30N 69°28' E 018°08'4 8.4
2017-Oct-18 08:00N 69°24' E 018°09'0 0.0
2017-Oct-18 07:30N 69°24' E 018°09'0 0.0
2017-Oct-18 07:00N 69°24' E 018°09'0 0.0
2017-Oct-18 06:30N 69°24' E 018°09'2 3.8
2017-Oct-18 06:00N 69°23' E 018°05'613.2
2017-Oct-18 05:30N 69°17' E 017°58'3 5.7
2017-Oct-18 05:01N 69°14' E 017°58'0 0.0
2017-Oct-18 04:30N 69°14' E 017°58'0 0.0
2017-Oct-18 04:00N 69°14' E 017°58'0 0.0
2017-Oct-18 03:30N 69°14' E 017°58'3 5.2
2017-Oct-18 03:00N 69°11' E 018°02'714.0
2017-Oct-18 02:30N 69°08' E 017°44'714.6
2017-Oct-18 02:00N 69°05' E 017°25'714.4
2017-Oct-18 01:30N 68°59' E 017°14'714.7
2017-Oct-18 01:00N 68°56' E 016°55'714.3
2017-Oct-18 00:30N 68°53' E 016°38'612.8
2017-Oct-18 00:00N 68°54' E 016°21'714.5
2017-Oct-17 23:30N 68°58' E 016°03'713.6
2017-Oct-17 23:00N 68°59' E 015°44'611.1
2017-Oct-17 22:30N 68°54' E 015°34'714.6
2017-Oct-17 21:59N 68°48' E 015°26'611.8
2017-Oct-17 21:31N 68°42' E 015°25'0 0.0
2017-Oct-17 21:00N 68°42' E 015°25'0 0.0
2017-Oct-17 20:30N 68°42' E 015°25'0 0.0
2017-Oct-17 20:00N 68°42' E 015°25'0 0.1
2017-Oct-17 19:31N 68°42' E 015°25'2 4.2
2017-Oct-17 19:00N 68°40' E 015°25'714.6
2017-Oct-17 18:30N 68°35' E 015°11'713.3
2017-Oct-17 18:00N 68°28' E 015°12'713.5
2017-Oct-17 17:30N 68°22' E 015°03'713.8
2017-Oct-17 17:00N 68°15' E 014°57'714.2
2017-Oct-17 16:30N 68°09' E 014°50'714.4
2017-Oct-17 16:00N 68°02' E 014°41'714.5
2017-Oct-17 15:30N 67°56' E 014°33'714.6
2017-Oct-17 15:00N 67°49' E 014°25'714.7
2017-Oct-17 14:30N 67°43' E 014°16'714.4
2017-Oct-17 14:00N 67°36' E 014°19'714.6
2017-Oct-17 13:30N 67°29' E 014°23'713.6
2017-Oct-17 13:00N 67°22' E 014°23'815.4
2017-Oct-17 12:30N 67°15' E 014°12'815.2
2017-Oct-17 12:01N 67°09' E 014°02'814.9
2017-Oct-17 11:30N 67°03' E 013°50'714.9
2017-Oct-17 11:01N 66°59' E 013°34'713.1
2017-Oct-17 10:30N 66°53' E 013°24'714.4
2017-Oct-17 10:00N 66°47' E 013°15'815.0
2017-Oct-17 09:30N 66°40' E 013°08'714.3
2017-Oct-17 09:00N 66°33' E 013°03'612.7
2017-Oct-17 08:30N 66°27' E 012°60'714.9
2017-Oct-17 08:00N 66°20' E 012°57'714.8
2017-Oct-17 07:30N 66°13' E 012°52'714.7
2017-Oct-17 07:00N 66°06' E 012°43'714.8
2017-Oct-17 06:30N 66°01' E 012°32'714.6
2017-Oct-17 06:00N 65°54' E 012°22'714.4
2017-Oct-17 05:30N 65°47' E 012°20'714.8
2017-Oct-17 05:00N 65°40' E 012°15'714.1
2017-Oct-17 04:30N 65°34' E 012°06'714.3
2017-Oct-17 04:00N 65°28' E 011°57'612.1
2017-Oct-17 03:30N 65°22' E 012°02'612.0
2017-Oct-17 03:01N 65°16' E 011°58'714.4
2017-Oct-17 02:30N 65°10' E 011°51'714.4
2017-Oct-17 02:01N 65°03' E 011°44'714.1
2017-Oct-17 01:30N 64°58' E 011°33'714.6
2017-Oct-17 01:00N 64°54' E 011°19'3 5.9
2017-Oct-17 00:30N 64°52' E 011°14'4 8.0
2017-Oct-17 00:00N 64°49' E 011°08'714.5
2017-Oct-16 23:30N 64°43' E 010°55'714.3
2017-Oct-16 23:00N 64°38' E 010°44'714.2
2017-Oct-16 22:30N 64°33' E 010°34'612.4
2017-Oct-16 22:00N 64°27' E 010°27'713.0
2017-Oct-16 21:29N 64°21' E 010°27'612.7
2017-Oct-16 21:00N 64°15' E 010°19'713.2
2017-Oct-16 20:30N 64°11' E 010°09'714.2
2017-Oct-16 20:00N 64°06' E 009°58'713.5
2017-Oct-16 19:30N 64°01' E 009°47'714.1
2017-Oct-16 19:00N 63°54' E 009°46'714.1
2017-Oct-16 18:30N 63°48' E 009°36'1 2.7
2017-Oct-16 18:00N 63°49' E 009°38'0 0.0
2017-Oct-16 17:30N 63°49' E 009°38'0 0.0
2017-Oct-16 17:00N 63°49' E 009°38'0 0.0
2017-Oct-16 16:30N 63°49' E 009°38'0 0.0
2017-Oct-16 16:00N 63°49' E 009°38'0 0.7
2017-Oct-16 15:30N 63°49' E 009°38'3 5.7
2017-Oct-16 15:00N 63°47' E 009°33'10 9.6
2017-Oct-16 14:00N 63°37' E 009°28'814.8
2017-Oct-16 13:30N 63°32' E 009°15'715.2
2017-Oct-16 13:00N 63°29' E 009°01'714.9
2017-Oct-16 12:30N 63°26' E 008°45'815.1
2017-Oct-16 12:00N 63°23' E 008°30'715.0
2017-Oct-16 11:30N 63°19' E 008°16'714.9
2017-Oct-16 11:00N 63°15' E 008°02'714.9
2017-Oct-16 10:30N 63°11' E 007°48'714.8
2017-Oct-16 10:00N 63°07' E 007°34'714.8
2017-Oct-16 09:30N 63°03' E 007°20'714.7
2017-Oct-16 09:00N 63°01' E 007°05'713.8
2017-Oct-16 08:30N 62°58' E 006°51'713.6
2017-Oct-16 07:59N 62°52' E 006°42'714.6
2017-Oct-16 07:30N 62°46' E 006°34'714.7
2017-Oct-16 07:00N 62°40' E 006°25'714.4
2017-Oct-16 06:30N 62°35' E 006°14'713.9
2017-Oct-16 06:00N 62°29' E 006°07'1 2.4
2017-Oct-16 05:31N 62°28' E 006°09'0 0.2
2017-Oct-16 05:01N 62°28' E 006°08'1 2.2
2017-Oct-16 04:30N 62°27' E 006°08'2 4.6
2017-Oct-16 04:00N 62°29' E 006°12'0 0.2
2017-Oct-16 03:30N 62°29' E 006°12'0 0.0
2017-Oct-16 03:00N 62°29' E 006°12'0 0.0
2017-Oct-16 02:30N 62°29' E 006°12'0 0.0
2017-Oct-16 02:00N 62°29' E 006°12'0 0.0
2017-Oct-16 01:30N 62°29' E 006°12'0 0.0
2017-Oct-16 00:59N 62°29' E 006°12'0 0.8
2017-Oct-16 00:31N 62°29' E 006°11'2 4.4
2017-Oct-16 00:00N 62°27' E 006°09'1 1.8
2017-Oct-15 23:30N 62°28' E 006°10'611.1
2017-Oct-15 23:00N 62°26' E 005°59'713.8
2017-Oct-15 22:31N 62°22' E 005°47'612.4
2017-Oct-15 22:00N 62°19' E 005°35'714.5
2017-Oct-15 21:30N 62°17' E 005°20'815.7
2017-Oct-15 21:00N 62°12' E 005°06'714.6
2017-Oct-15 20:30N 62°06' E 004°60'510.4
2017-Oct-15 20:00N 62°02' E 005°08'4 7.0
2017-Oct-15 19:30N 61°59' E 005°08'0 0.0
2017-Oct-15 19:00N 61°59' E 005°08'0 0.0
2017-Oct-15 18:31N 61°59' E 005°08'3 5.1
2017-Oct-15 18:00N 61°56' E 005°07'0 0.0
2017-Oct-15 17:30N 61°56' E 005°07'0 0.0
2017-Oct-15 17:00N 61°56' E 005°07'4 8.4
2017-Oct-15 16:30N 61°53' E 005°11'4 8.0
2017-Oct-15 16:00N 61°49' E 005°09'814.8
2017-Oct-15 15:29N 61°43' E 004°58'714.6
2017-Oct-15 15:00N 61°36' E 004°58'1313.3
2017-Oct-15 14:00N 61°23' E 004°50'815.2
2017-Oct-15 13:30N 61°16' E 004°46'713.4
2017-Oct-15 13:00N 61°09' E 004°45'714.9
2017-Oct-15 12:30N 61°02' E 004°45'815.1
2017-Oct-15 12:00N 60°55' E 004°46'714.6
2017-Oct-15 11:30N 60°47' E 004°45'815.5
2017-Oct-15 11:00N 60°40' E 004°51'815.6
2017-Oct-15 10:30N 60°33' E 004°56'815.6
2017-Oct-15 10:00N 60°26' E 005°03'613.0
2017-Oct-15 09:30N 60°24' E 005°16'2 3.5
2017-Oct-15 09:00N 60°23' E 005°19'0 0.0
2017-Oct-15 08:30N 60°23' E 005°19'0 0.0
2017-Oct-15 08:01N 60°23' E 005°19'2 3.9
2017-Oct-15 07:30N 60°24' E 005°15'611.1
2017-Oct-15 07:00N 60°19' E 005°12'713.9
2017-Oct-15 06:29N 60°12' E 005°11'613.2
2017-Oct-15 06:00N 60°08' E 004°60'714.6
2017-Oct-15 05:30N 60°04' E 004°48'714.8
2017-Oct-15 05:00N 59°59' E 004°37'25414.5
2017-Oct-14 11:26N 57°18' W 001°42'614.7
2017-Oct-14 11:01N 57°14' W 001°50'714.5
2017-Oct-14 10:30N 57°10' W 002°01'3 5.4
2017-Oct-14 10:01N 57°09' W 002°05'0 0.0
2017-Oct-14 09:31N 57°09' W 002°05'0 0.0
2017-Oct-14 09:01N 57°09' W 002°05'0 0.0
2017-Oct-14 08:31N 57°09' W 002°05'0 0.0
2017-Oct-14 08:00N 57°09' W 002°05'0 0.0
2017-Oct-14 07:31N 57°09' W 002°05'0 0.0
2017-Oct-14 07:01N 57°09' W 002°05'0 0.7
2017-Oct-14 06:31N 57°09' W 002°05'2 4.2
2017-Oct-14 06:01N 57°09' W 002°01'4 8.0
2017-Oct-14 05:31N 57°05' W 001°58'4 8.8
2017-Oct-14 05:00N 57°01' W 001°54'4 7.9
2017-Oct-14 04:30N 56°58' W 001°51'14114.6
2017-Oct-13 18:50N 54°46' W 000°21'514.6
2017-Oct-13 18:30N 54°42' W 000°18'714.7
2017-Oct-13 18:00N 54°35' W 000°14'714.8
2017-Oct-13 17:30N 54°28' W 000°10'815.1
2017-Oct-13 17:00N 54°21' W 000°05'815.2
2017-Oct-13 16:30N 54°14' E 000°00'815.4
2017-Oct-13 16:01N 54°07' E 000°05'32 9.7
2017-Oct-13 12:40N 53°35' W 000°04'0 0.0
2017-Oct-13 12:30N 53°35' W 000°04'0 0.0
2017-Oct-12 17:43N 53°35' W 000°04'0 0.0
2017-Oct-12 17:23N 53°35' W 000°04'0 0.0
2017-Oct-12 16:56N 53°35' W 000°04'  
Track history (hours):
 
Tides and Currents Weather Stations Pressure Air Temp Water Temp Dewpoint Dewpoint Depression Visibility Wind Speed Wind Dir Waves Ship Positions

Polfoss

Last reported at 2017-Oct-22 04:30 UTC. Time now 2017-Oct-22 04:46 UTC.
Position N 70°38' E 029°43'.

Length 82 m; draft 5.4 m.

Type: Cargo ship. MMSI: 305081000.

Date/timePositionNaut miles runAvg speedWind from/ knotsBaromVisibWave heightAir tempDewpointWater temp
2017-Oct-22 04:30N 70°38' E 029°43'0 0.0
2017-Oct-22 04:00N 70°38' E 029°43'0 0.0
2017-Oct-22 03:30N 70°38' E 029°43'0 0.0
2017-Oct-22 03:00N 70°38' E 029°43'0 0.0
2017-Oct-22 02:30N 70°38' E 029°43'0 0.0
2017-Oct-22 02:00N 70°38' E 029°43'0 0.0
2017-Oct-22 01:29N 70°38' E 029°43'0 0.0
2017-Oct-22 01:00N 70°38' E 029°43'0 0.0
2017-Oct-22 00:30N 70°38' E 029°43'2 3.9
2017-Oct-22 00:00N 70°39' E 029°48'714.1
2017-Oct-21 23:30N 70°44' E 030°03'612.5
2017-Oct-21 23:00N 70°41' E 030°19'714.2
2017-Oct-21 22:30N 70°36' E 030°34'714.2
2017-Oct-21 22:00N 70°31' E 030°50'713.7
2017-Oct-21 21:30N 70°25' E 031°02'3 6.5
2017-Oct-21 20:59N 70°22' E 031°02'0 0.0
2017-Oct-21 20:29N 70°22' E 031°02'0 0.0
2017-Oct-21 20:00N 70°22' E 031°02'3 5.2
2017-Oct-21 19:30N 70°20' E 031°06'612.3
2017-Oct-21 19:00N 70°14' E 030°60'612.5
2017-Oct-21 18:30N 70°09' E 030°48'712.8
2017-Oct-21 17:59N 70°04' E 030°36'713.4
2017-Oct-21 17:30N 69°59' E 030°23'714.0
2017-Oct-21 17:00N 69°54' E 030°10'714.1
2017-Oct-21 16:30N 69°47' E 030°05'3 6.3
2017-Oct-21 16:00N 69°44' E 030°04'0 0.0
2017-Oct-21 15:30N 69°44' E 030°04'0 0.0
2017-Oct-21 15:00N 69°44' E 030°04'0 0.0
2017-Oct-21 14:00N 69°44' E 030°04'0 0.0
2017-Oct-21 13:30N 69°44' E 030°04'4 8.2
2017-Oct-21 13:00N 69°48' E 030°06'713.3
2017-Oct-21 12:30N 69°54' E 030°13'714.3
2017-Oct-21 12:00N 69°57' E 030°32'714.7
2017-Oct-21 11:30N 70°01' E 030°51'714.7
2017-Oct-21 11:00N 70°04' E 031°10'714.6
2017-Oct-21 10:30N 70°08' E 031°28'714.4
2017-Oct-21 10:00N 70°11' E 031°48'72 9.7
2017-Oct-21 02:31N 69°03' E 033°05'3 6.8
2017-Oct-21 02:01N 69°00' E 033°03'3 6.7
2017-Oct-21 01:30N 68°57' E 033°01'0 1.0
2017-Oct-21 01:01N 68°56' E 033°02'0 0.0
2017-Oct-21 00:28N 68°56' E 033°02'0 0.0
2017-Oct-20 23:58N 68°56' E 033°02'0 0.0
2017-Oct-20 23:28N 68°56' E 033°02'0 0.0
2017-Oct-20 23:00N 68°56' E 033°02'0 0.0
2017-Oct-20 22:30N 68°56' E 033°02'0 0.0
2017-Oct-20 22:00N 68°56' E 033°02'0 0.0
2017-Oct-20 21:29N 68°56' E 033°02'0 0.0
2017-Oct-20 20:59N 68°56' E 033°02'0 0.0
2017-Oct-20 20:29N 68°56' E 033°02'0 0.0
2017-Oct-20 19:58N 68°56' E 033°02'0 0.0
2017-Oct-20 19:28N 68°56' E 033°02'0 0.0
2017-Oct-20 19:00N 68°56' E 033°02'0 0.0
2017-Oct-20 18:29N 68°56' E 033°02'0 0.0
2017-Oct-20 17:59N 68°56' E 033°02'0 0.0
2017-Oct-20 17:29N 68°56' E 033°02'0 0.0
2017-Oct-20 16:58N 68°56' E 033°02'0 0.0
2017-Oct-20 16:28N 68°56' E 033°02'0 0.0
2017-Oct-20 15:58N 68°56' E 033°02'0 0.0
2017-Oct-20 15:27N 68°56' E 033°02'0 0.0
2017-Oct-20 15:00N 68°56' E 033°02'0 0.0
2017-Oct-20 13:59N 68°56' E 033°02'0 0.0
2017-Oct-20 13:30N 68°56' E 033°02'0 0.0
2017-Oct-20 13:00N 68°56' E 033°02'0 0.0
2017-Oct-20 12:29N 68°56' E 033°02'0 0.0
2017-Oct-20 11:56N 68°56' E 033°02'0 0.0
2017-Oct-20 11:28N 68°56' E 033°02'0 0.0
2017-Oct-20 10:58N 68°56' E 033°02'0 0.0
2017-Oct-20 10:28N 68°56' E 033°02'0 0.0
2017-Oct-20 10:01N 68°56' E 033°02'0 0.0
2017-Oct-20 09:30N 68°56' E 033°02'0 0.0
2017-Oct-20 09:00N 68°56' E 033°02'0 0.0
2017-Oct-20 08:27N 68°56' E 033°02'0 0.0
2017-Oct-20 07:59N 68°56' E 033°02'0 0.0
2017-Oct-20 07:29N 68°56' E 033°02'0 0.0
2017-Oct-20 06:59N 68°56' E 033°02'0 0.0
2017-Oct-20 06:28N 68°56' E 033°02'0 0.0
2017-Oct-20 06:00N 68°56' E 033°02'0 0.0
2017-Oct-20 05:30N 68°56' E 033°02'0 0.0
2017-Oct-20 05:00N 68°56' E 033°02'0 0.0
2017-Oct-20 04:30N 68°56' E 033°02'0 0.0
2017-Oct-20 03:59N 68°56' E 033°02'0 0.0
2017-Oct-20 03:29N 68°56' E 033°02'0 0.0
2017-Oct-20 03:00N 68°56' E 033°02'2 3.6
2017-Oct-20 02:30N 68°58' E 033°02'3 6.5
2017-Oct-20 02:00N 69°01' E 033°03'72 9.4
2017-Oct-19 18:17N 70°10' E 032°01'413.1
2017-Oct-19 18:00N 70°10' E 031°50'713.0
2017-Oct-19 17:29N 70°08' E 031°31'612.9
2017-Oct-19 17:00N 70°05' E 031°15'713.0
2017-Oct-19 16:30N 70°02' E 030°58'713.4
2017-Oct-19 16:00N 69°59' E 030°40'713.4
2017-Oct-19 15:30N 69°56' E 030°23'713.6
2017-Oct-19 15:00N 69°52' E 030°07'714.6
2017-Oct-19 14:30N 69°45' E 030°04'1 1.8
2017-Oct-19 14:01N 69°44' E 030°05'1 1.7
2017-Oct-19 13:30N 69°45' E 030°05'714.7
2017-Oct-19 13:00N 69°52' E 030°08'714.8
2017-Oct-19 12:30N 69°58' E 030°20'714.8
2017-Oct-19 12:00N 70°04' E 030°34'815.3
2017-Oct-19 11:30N 70°10' E 030°48'815.3
2017-Oct-19 11:00N 70°16' E 031°02'714.0
2017-Oct-19 10:30N 70°22' E 031°04'713.8
2017-Oct-19 10:00N 70°29' E 030°57'713.2
2017-Oct-19 09:30N 70°34' E 030°42'713.2
2017-Oct-19 09:00N 70°38' E 030°27'612.9
2017-Oct-19 08:30N 70°42' E 030°13'713.2
2017-Oct-19 08:00N 70°46' E 029°56'713.2
2017-Oct-19 07:30N 70°49' E 029°39'612.7
2017-Oct-19 07:00N 70°53' E 029°23'613.0
2017-Oct-19 06:30N 70°56' E 029°06'613.0
2017-Oct-19 06:00N 70°60' E 028°49'713.3
2017-Oct-19 05:30N 71°03' E 028°32'713.3
2017-Oct-19 05:00N 71°07' E 028°16'712.8
2017-Oct-19 04:29N 71°08' E 027°56'713.1
2017-Oct-19 04:00N 71°09' E 027°36'713.8
2017-Oct-19 03:31N 71°06' E 027°17'713.9
2017-Oct-19 03:00N 71°04' E 026°57'713.9
2017-Oct-19 02:30N 71°01' E 026°37'713.7
2017-Oct-19 02:00N 70°59' E 026°17'714.0
2017-Oct-19 01:30N 70°57' E 025°56'714.5
2017-Oct-19 01:00N 70°56' E 025°34'815.6
2017-Oct-19 00:30N 70°59' E 025°14'714.8
2017-Oct-19 00:00N 70°60' E 024°51'714.3
2017-Oct-18 23:30N 71°01' E 024°29'714.8
2017-Oct-18 23:00N 70°56' E 024°14'815.1
2017-Oct-18 22:30N 70°51' E 023°56'714.8
2017-Oct-18 22:00N 70°46' E 023°40'715.0
2017-Oct-18 21:30N 70°40' E 023°24'815.4
2017-Oct-18 21:00N 70°34' E 023°09'714.7
2017-Oct-18 20:31N 70°30' E 022°52'714.5
2017-Oct-18 20:00N 70°28' E 022°31'714.6
2017-Oct-18 19:30N 70°26' E 022°10'815.2
2017-Oct-18 19:00N 70°24' E 021°47'713.8
2017-Oct-18 18:30N 70°20' E 021°31'714.3
2017-Oct-18 18:00N 70°15' E 021°15'714.1
2017-Oct-18 17:30N 70°10' E 021°03'714.5
2017-Oct-18 17:00N 70°03' E 020°53'714.7
2017-Oct-18 16:30N 70°01' E 020°33'814.8
2017-Oct-18 16:00N 69°59' E 020°12'714.6
2017-Oct-18 15:30N 69°54' E 019°56'714.4
2017-Oct-18 15:00N 69°50' E 019°39'1414.0
2017-Oct-18 14:00N 69°43' E 019°03'4 8.4
2017-Oct-18 13:30N 69°39' E 018°58'0 0.0
2017-Oct-18 13:00N 69°39' E 018°58'0 0.0
2017-Oct-18 12:30N 69°39' E 018°58'0 0.0
2017-Oct-18 12:00N 69°39' E 018°58'0 0.0
2017-Oct-18 11:30N 69°39' E 018°58'0 0.0
2017-Oct-18 11:00N 69°39' E 018°58'0 0.7
2017-Oct-18 10:30N 69°40' E 018°59'1 1.4
2017-Oct-18 10:00N 69°39' E 018°59'612.6
2017-Oct-18 09:30N 69°34' E 018°48'815.7
2017-Oct-18 09:00N 69°31' E 018°27'714.7
2017-Oct-18 08:30N 69°28' E 018°08'4 8.4
2017-Oct-18 08:00N 69°24' E 018°09'0 0.0
2017-Oct-18 07:30N 69°24' E 018°09'0 0.0
2017-Oct-18 07:00N 69°24' E 018°09'0 0.0
2017-Oct-18 06:30N 69°24' E 018°09'2 3.8
2017-Oct-18 06:00N 69°23' E 018°05'613.2
2017-Oct-18 05:30N 69°17' E 017°58'3 5.7
2017-Oct-18 05:01N 69°14' E 017°58'0 0.0
2017-Oct-18 04:30N 69°14' E 017°58'0 0.0
2017-Oct-18 04:00N 69°14' E 017°58'0 0.0
2017-Oct-18 03:30N 69°14' E 017°58'3 5.2
2017-Oct-18 03:00N 69°11' E 018°02'714.0
2017-Oct-18 02:30N 69°08' E 017°44'714.6
2017-Oct-18 02:00N 69°05' E 017°25'714.4
2017-Oct-18 01:30N 68°59' E 017°14'714.7
2017-Oct-18 01:00N 68°56' E 016°55'714.3
2017-Oct-18 00:30N 68°53' E 016°38'612.8
2017-Oct-18 00:00N 68°54' E 016°21'714.5
2017-Oct-17 23:30N 68°58' E 016°03'713.6
2017-Oct-17 23:00N 68°59' E 015°44'611.1
2017-Oct-17 22:30N 68°54' E 015°34'714.6
2017-Oct-17 21:59N 68°48' E 015°26'611.8
2017-Oct-17 21:31N 68°42' E 015°25'0 0.0
2017-Oct-17 21:00N 68°42' E 015°25'0 0.0
2017-Oct-17 20:30N 68°42' E 015°25'0 0.0
2017-Oct-17 20:00N 68°42' E 015°25'0 0.1
2017-Oct-17 19:31N 68°42' E 015°25'2 4.2
2017-Oct-17 19:00N 68°40' E 015°25'714.6
2017-Oct-17 18:30N 68°35' E 015°11'713.3
2017-Oct-17 18:00N 68°28' E 015°12'713.5
2017-Oct-17 17:30N 68°22' E 015°03'713.8
2017-Oct-17 17:00N 68°15' E 014°57'714.2
2017-Oct-17 16:30N 68°09' E 014°50'714.4
2017-Oct-17 16:00N 68°02' E 014°41'714.5
2017-Oct-17 15:30N 67°56' E 014°33'714.6
2017-Oct-17 15:00N 67°49' E 014°25'714.7
2017-Oct-17 14:30N 67°43' E 014°16'714.4
2017-Oct-17 14:00N 67°36' E 014°19'714.6
2017-Oct-17 13:30N 67°29' E 014°23'713.6
2017-Oct-17 13:00N 67°22' E 014°23'815.4
2017-Oct-17 12:30N 67°15' E 014°12'815.2
2017-Oct-17 12:01N 67°09' E 014°02'814.9
2017-Oct-17 11:30N 67°03' E 013°50'714.9
2017-Oct-17 11:01N 66°59' E 013°34'713.1
2017-Oct-17 10:30N 66°53' E 013°24'714.4
2017-Oct-17 10:00N 66°47' E 013°15'815.0
2017-Oct-17 09:30N 66°40' E 013°08'714.3
2017-Oct-17 09:00N 66°33' E 013°03'612.7
2017-Oct-17 08:30N 66°27' E 012°60'714.9
2017-Oct-17 08:00N 66°20' E 012°57'714.8
2017-Oct-17 07:30N 66°13' E 012°52'714.7
2017-Oct-17 07:00N 66°06' E 012°43'714.8
2017-Oct-17 06:30N 66°01' E 012°32'714.6
2017-Oct-17 06:00N 65°54' E 012°22'714.4
2017-Oct-17 05:30N 65°47' E 012°20'714.8
2017-Oct-17 05:00N 65°40' E 012°15'714.1
2017-Oct-17 04:30N 65°34' E 012°06'714.3
2017-Oct-17 04:00N 65°28' E 011°57'612.1
2017-Oct-17 03:30N 65°22' E 012°02'612.0
2017-Oct-17 03:01N 65°16' E 011°58'714.4
2017-Oct-17 02:30N 65°10' E 011°51'714.4
2017-Oct-17 02:01N 65°03' E 011°44'714.1
2017-Oct-17 01:30N 64°58' E 011°33'714.6
2017-Oct-17 01:00N 64°54' E 011°19'3 5.9
2017-Oct-17 00:30N 64°52' E 011°14'4 8.0
2017-Oct-17 00:00N 64°49' E 011°08'714.5
2017-Oct-16 23:30N 64°43' E 010°55'714.3
2017-Oct-16 23:00N 64°38' E 010°44'714.2
2017-Oct-16 22:30N 64°33' E 010°34'612.4
2017-Oct-16 22:00N 64°27' E 010°27'713.0
2017-Oct-16 21:29N 64°21' E 010°27'612.7
2017-Oct-16 21:00N 64°15' E 010°19'713.2
2017-Oct-16 20:30N 64°11' E 010°09'714.2
2017-Oct-16 20:00N 64°06' E 009°58'713.5
2017-Oct-16 19:30N 64°01' E 009°47'714.1
2017-Oct-16 19:00N 63°54' E 009°46'714.1
2017-Oct-16 18:30N 63°48' E 009°36'1 2.7
2017-Oct-16 18:00N 63°49' E 009°38'0 0.0
2017-Oct-16 17:30N 63°49' E 009°38'0 0.0
2017-Oct-16 17:00N 63°49' E 009°38'0 0.0
2017-Oct-16 16:30N 63°49' E 009°38'0 0.0
2017-Oct-16 16:00N 63°49' E 009°38'0 0.7
2017-Oct-16 15:30N 63°49' E 009°38'3 5.7
2017-Oct-16 15:00N 63°47' E 009°33'10 9.6
2017-Oct-16 14:00N 63°37' E 009°28'814.8
2017-Oct-16 13:30N 63°32' E 009°15'715.2
2017-Oct-16 13:00N 63°29' E 009°01'714.9
2017-Oct-16 12:30N 63°26' E 008°45'815.1
2017-Oct-16 12:00N 63°23' E 008°30'715.0
2017-Oct-16 11:30N 63°19' E 008°16'714.9
2017-Oct-16 11:00N 63°15' E 008°02'714.9
2017-Oct-16 10:30N 63°11' E 007°48'714.8
2017-Oct-16 10:00N 63°07' E 007°34'714.8
2017-Oct-16 09:30N 63°03' E 007°20'714.7
2017-Oct-16 09:00N 63°01' E 007°05'713.8
2017-Oct-16 08:30N 62°58' E 006°51'713.6
2017-Oct-16 07:59N 62°52' E 006°42'714.6
2017-Oct-16 07:30N 62°46' E 006°34'714.7
2017-Oct-16 07:00N 62°40' E 006°25'714.4
2017-Oct-16 06:30N 62°35' E 006°14'713.9
2017-Oct-16 06:00N 62°29' E 006°07'1 2.4
2017-Oct-16 05:31N 62°28' E 006°09'0 0.2
2017-Oct-16 05:01N 62°28' E 006°08'1 2.2
2017-Oct-16 04:30N 62°27' E 006°08'2 4.6
2017-Oct-16 04:00N 62°29' E 006°12'0 0.2
2017-Oct-16 03:30N 62°29' E 006°12'0 0.0
2017-Oct-16 03:00N 62°29' E 006°12'0 0.0
2017-Oct-16 02:30N 62°29' E 006°12'0 0.0
2017-Oct-16 02:00N 62°29' E 006°12'0 0.0
2017-Oct-16 01:30N 62°29' E 006°12'0 0.0
2017-Oct-16 00:59N 62°29' E 006°12'0 0.8
2017-Oct-16 00:31N 62°29' E 006°11'2 4.4
2017-Oct-16 00:00N 62°27' E 006°09'1 1.8
2017-Oct-15 23:30N 62°28' E 006°10'611.1
2017-Oct-15 23:00N 62°26' E 005°59'713.8
2017-Oct-15 22:31N 62°22' E 005°47'612.4
2017-Oct-15 22:00N 62°19' E 005°35'714.5
2017-Oct-15 21:30N 62°17' E 005°20'815.7
2017-Oct-15 21:00N 62°12' E 005°06'714.6
2017-Oct-15 20:30N 62°06' E 004°60'510.4
2017-Oct-15 20:00N 62°02' E 005°08'4 7.0
2017-Oct-15 19:30N 61°59' E 005°08'0 0.0
2017-Oct-15 19:00N 61°59' E 005°08'0 0.0
2017-Oct-15 18:31N 61°59' E 005°08'3 5.1
2017-Oct-15 18:00N 61°56' E 005°07'0 0.0
2017-Oct-15 17:30N 61°56' E 005°07'0 0.0
2017-Oct-15 17:00N 61°56' E 005°07'4 8.4
2017-Oct-15 16:30N 61°53' E 005°11'4 8.0
2017-Oct-15 16:00N 61°49' E 005°09'814.8
2017-Oct-15 15:29N 61°43' E 004°58'714.6
2017-Oct-15 15:00N 61°36' E 004°58'1313.3
2017-Oct-15 14:00N 61°23' E 004°50'815.2
2017-Oct-15 13:30N 61°16' E 004°46'713.4
2017-Oct-15 13:00N 61°09' E 004°45'714.9
2017-Oct-15 12:30N 61°02' E 004°45'815.1
2017-Oct-15 12:00N 60°55' E 004°46'714.6
2017-Oct-15 11:30N 60°47' E 004°45'815.5
2017-Oct-15 11:00N 60°40' E 004°51'815.6
2017-Oct-15 10:30N 60°33' E 004°56'815.6
2017-Oct-15 10:00N 60°26' E 005°03'613.0
2017-Oct-15 09:30N 60°24' E 005°16'2 3.5
2017-Oct-15 09:00N 60°23' E 005°19'0 0.0
2017-Oct-15 08:30N 60°23' E 005°19'0 0.0
2017-Oct-15 08:01N 60°23' E 005°19'2 3.9
2017-Oct-15 07:30N 60°24' E 005°15'611.1
2017-Oct-15 07:00N 60°19' E 005°12'713.9
2017-Oct-15 06:29N 60°12' E 005°11'613.2
2017-Oct-15 06:00N 60°08' E 004°60'714.6
2017-Oct-15 05:30N 60°04' E 004°48'714.8
2017-Oct-15 05:00N 59°59' E 004°37'25414.5
2017-Oct-14 11:26N 57°18' W 001°42'614.7
2017-Oct-14 11:01N 57°14' W 001°50'714.5
2017-Oct-14 10:30N 57°10' W 002°01'3 5.4
2017-Oct-14 10:01N 57°09' W 002°05'0 0.0
2017-Oct-14 09:31N 57°09' W 002°05'0 0.0
2017-Oct-14 09:01N 57°09' W 002°05'0 0.0
2017-Oct-14 08:31N 57°09' W 002°05'0 0.0
2017-Oct-14 08:00N 57°09' W 002°05'0 0.0
2017-Oct-14 07:31N 57°09' W 002°05'0 0.0
2017-Oct-14 07:01N 57°09' W 002°05'0 0.7
2017-Oct-14 06:31N 57°09' W 002°05'2 4.2
2017-Oct-14 06:01N 57°09' W 002°01'4 8.0
2017-Oct-14 05:31N 57°05' W 001°58'4 8.8
2017-Oct-14 05:00N 57°01' W 001°54'4 7.9
2017-Oct-14 04:30N 56°58' W 001°51'14114.6
2017-Oct-13 18:50N 54°46' W 000°21'514.6
2017-Oct-13 18:30N 54°42' W 000°18'714.7
2017-Oct-13 18:00N 54°35' W 000°14'714.8
2017-Oct-13 17:30N 54°28' W 000°10'815.1
2017-Oct-13 17:00N 54°21' W 000°05'815.2
2017-Oct-13 16:30N 54°14' E 000°00'815.4
2017-Oct-13 16:01N 54°07' E 000°05'32 9.7
2017-Oct-13 12:40N 53°35' W 000°04'0 0.0
2017-Oct-13 12:30N 53°35' W 000°04'0 0.0
2017-Oct-12 17:43N 53°35' W 000°04'0 0.0
2017-Oct-12 17:23N 53°35' W 000°04'0 0.0
2017-Oct-12 16:56N 53°35' W 000°04'  

Dump ship's entire track history